Fruitvale, Tennessee
Current Conditions -  °F | °C
As of 5:53 AM on Friday 28 Nov 2014 (Local Time) from KMKL Reporting Station
Clear Clear  
Wind Chill: 28°   Ceiling: Unl
Heat Index: 28°   Visibility: 10mi
Dew Point: 21°   Wind: 3mph
Humidity: 75%   Direction: 160°SSE
Pressure: 30.42"   Gusts: NA
Location:  35.75°N, 89.03°W
Report Text: KMKL 281153Z AUTO 16003KT 10SM CLR M02/M06 A3042 RMK AO2 SLP303 T10221061 11017 21044 56006
Loading
Personal Weather Stations






























Interactive Weather Map New forecast layout! Learn more

10-Day Weather Forecast

Advertisements
Track Severe Weather on mobile